Time;durP1;ratioP1;P1;durP2;ratioP2;P2;SDS_P1;SDS_P2;PMS_P1;PMS_P2;Temp;Humidity;BMP_temperature;BMP_pressure;BME280_temperature;BME280_humidity;BME280_pressure;Samples;Min_cycle;Max_cycle;Signal;HPM_P1;HPM_P2
2022/08/30 00:03:24;;;;;;;;;;;;;;;27.01;59.52;100987.50;5013007;28;1074;-42
2022/08/30 00:06:10;;;;;;;;;;;;;;;26.99;59.47;100985.94;5012562;28;681;-39
2022/08/30 00:08:56;;;;;;;;;;;;;;;27.05;59.46;100994.25;5012358;28;1249;-37
2022/08/30 00:11:41;;;;;;;;;;;;;;;26.94;60.23;100996.16;5011082;28;712;-41
2022/08/30 00:14:26;;;;;;;;;;;;;;;27.04;59.76;100994.38;5013019;28;1235;-37
2022/08/30 00:17:11;;;;;;;;;;;;;;;26.97;60.12;100990.56;5013005;28;602;-39
2022/08/30 00:19:57;;;;;;;;;;;;;;;27.00;59.85;100991.13;5013111;28;1228;-39
2022/08/30 00:22:43;;;;;;;;;;;;;;;26.83;59.70;100983.75;5012814;28;967;-39
2022/08/30 00:25:29;;;;;;;;;;;;;;;26.77;60.08;100981.59;5012595;28;1332;-39
2022/08/30 00:28:15;;;;;;;;;;;;;;;26.88;59.83;100978.84;5012498;28;1964;-39
2022/08/30 00:31:01;;;;;;;;;;;;;;;26.83;59.92;100977.56;5011412;28;720;-40
2022/08/30 00:33:46;;;;;;;;;;;;;;;26.87;59.83;100969.13;5012504;28;1172;-42
2022/08/30 00:36:31;;;;;;;;;;;;;;;26.86;59.99;100969.28;5012340;28;629;-38
2022/08/30 00:39:17;;;;;;;;;;;;;;;26.87;60.05;100968.31;5012437;28;1297;-39
2022/08/30 00:42:02;;;;;;;;;;;;;;;26.82;60.29;100962.50;5012211;28;992;-38
2022/08/30 00:44:48;;;;;;;;;;;;;;;26.90;60.22;100960.03;5012313;28;1708;-39
2022/08/30 00:47:34;;;;;;;;;;;;;;;26.91;60.21;100951.84;5012240;28;1966;-38
2022/08/30 00:50:20;;;;;;;;;;;;;;;26.89;60.30;100953.81;5014574;28;1260;-39
2022/08/30 00:53:07;;;;;;;;;;;;;;;26.85;60.44;100948.88;5015791;28;1044;-40
2022/08/30 00:55:53;;;;;;;;;;;;;;;26.83;60.66;100948.16;5015931;28;645;-38
2022/08/30 00:58:43;;;;;;;;;;;;;;;26.82;60.69;100946.47;5015823;28;1322;-40
2022/08/30 01:01:29;;;;;;;;;;;;;;;26.81;60.68;100939.44;5016118;28;614;-39
2022/08/30 01:04:20;;;;;;;;;;;;;;;26.80;60.89;100940.41;5015954;28;1279;-39
2022/08/30 01:07:07;;;;;;;;;;;;;;;26.78;60.76;100947.69;5015759;28;1968;-39
2022/08/30 01:09:52;;;;;;;;;;;;;;;26.74;60.78;100947.13;5015180;28;1236;-39
2022/08/30 01:12:38;;;;;;;;;;;;;;;26.74;60.84;100949.78;5015574;28;709;-38
2022/08/30 01:15:24;;;;;;;;;;;;;;;26.78;60.79;100950.38;5015469;28;1269;-41
2022/08/30 01:18:11;;;;;;;;;;;;;;;26.73;60.72;100941.88;5015551;28;1134;-40
2022/08/30 01:20:57;;;;;;;;;;;;;;;26.73;60.73;100950.75;5015617;28;634;-38
2022/08/30 01:23:43;;;;;;;;;;;;;;;26.73;60.47;100952.56;5014997;28;1235;-39
2022/08/30 01:26:30;;;;;;;;;;;;;;;26.64;60.77;100948.88;5015508;28;695;-40
2022/08/30 01:29:19;;;;;;;;;;;;;;;26.50;61.37;100952.78;5015389;28;1216;-41
2022/08/30 01:32:04;;;;;;;;;;;;;;;26.42;61.32;100952.56;5015027;28;641;-38
2022/08/30 01:34:50;;;;;;;;;;;;;;;26.48;60.91;100946.69;5015589;28;1300;-41
2022/08/30 01:37:36;;;;;;;;;;;;;;;26.57;60.55;100947.72;5015123;28;649;-38
2022/08/30 01:40:21;;;;;;;;;;;;;;;26.55;59.76;100947.00;5014868;28;1272;-39
2022/08/30 01:43:06;;;;;;;;;;;;;;;26.49;59.45;100948.41;5015300;28;928;-39
2022/08/30 01:45:52;;;;;;;;;;;;;;;26.42;58.71;100955.25;5014843;28;1292;-39
2022/08/30 01:48:38;;;;;;;;;;;;;;;26.44;58.50;100955.13;5013748;28;1969;-37
2022/08/30 01:51:25;;;;;;;;;;;;;;;26.51;58.16;100956.25;5014876;28;629;-40
2022/08/30 01:54:10;;;;;;;;;;;;;;;26.39;56.43;100957.31;5014815;28;1172;-38
2022/08/30 01:56:55;;;;;;;;;;;;;;;26.32;55.26;100951.69;5015062;28;777;-38
2022/08/30 01:59:42;;;;;;;;;;;;;;;26.30;54.53;100948.28;5014952;28;1221;-38
2022/08/30 02:02:28;;;;;;;;;;;;;;;26.28;54.31;100952.91;5014103;28;700;-38
2022/08/30 02:05:13;;;;;;;;;;;;;;;26.24;53.80;100951.47;5014379;28;1339;-39
2022/08/30 02:07:59;;;;;;;;;;;;;;;26.21;54.19;100949.06;5014615;28;1898;-38
2022/08/30 02:10:44;;;;;;;;;;;;;;;26.24;54.15;100948.81;5014738;28;1361;-40
2022/08/30 02:13:29;;;;;;;;;;;;;;;26.20;54.37;100947.41;5014428;28;1231;-38
2022/08/30 02:16:17;;;;;;;;;;;;;;;26.18;54.30;100946.66;5014540;28;630;-38
2022/08/30 02:19:02;;;;;;;;;;;;;;;26.19;54.53;100950.19;5014455;28;1357;-39
2022/08/30 02:21:48;;;;;;;;;;;;;;;26.22;54.10;100945.44;5014614;28;685;-40
2022/08/30 02:24:33;;;;;;;;;;;;;;;26.25;54.25;100945.16;5014791;28;1337;-39
2022/08/30 02:27:18;;;;;;;;;;;;;;;26.23;54.23;100939.13;5014201;28;1902;-40
2022/08/30 02:30:05;;;;;;;;;;;;;;;26.25;54.02;100939.81;5014754;28;1285;-40
2022/08/30 02:32:51;;;;;;;;;;;;;;;26.27;54.08;100947.69;5014527;28;1023;-37
2022/08/30 02:35:36;;;;;;;;;;;;;;;26.27;54.16;100942.34;5012994;28;1346;-39
2022/08/30 02:38:22;;;;;;;;;;;;;;;26.30;53.86;100940.25;5014188;28;1023;-38
2022/08/30 02:41:08;;;;;;;;;;;;;;;26.33;53.57;100937.34;5014046;28;650;-40
2022/08/30 02:43:57;;;;;;;;;;;;;;;26.28;52.91;100934.22;5014170;28;1201;-39
2022/08/30 02:46:42;;;;;;;;;;;;;;;26.32;52.73;100929.47;5014206;28;613;-38
2022/08/30 02:49:27;;;;;;;;;;;;;;;26.33;52.56;100923.13;5013627;28;1254;-37
2022/08/30 02:52:20;;;;;;;;;;;;;;;26.36;52.25;100929.06;5014438;28;665;-37
2022/08/30 02:55:12;;;;;;;;;;;;;;;26.48;52.61;100928.00;5014585;28;1269;-39
2022/08/30 02:57:57;;;;;;;;;;;;;;;26.45;52.25;100925.59;5013269;28;1058;-40
2022/08/30 03:00:42;;;;;;;;;;;;;;;26.39;52.05;100928.78;5014484;28;1280;-41
2022/08/30 03:03:28;;;;;;;;;;;;;;;26.45;52.27;100927.41;5014260;28;1292;-37
2022/08/30 03:06:13;;;;;;;;;;;;;;;26.43;52.28;100922.22;5014425;28;693;-39
2022/08/30 03:08:58;;;;;;;;;;;;;;;26.43;52.05;100922.22;5014164;28;1958;-40
2022/08/30 03:11:44;;;;;;;;;;;;;;;26.41;52.10;100928.69;5014238;28;642;-40
2022/08/30 03:14:30;;;;;;;;;;;;;;;26.36;52.00;100920.19;5012791;28;1224;-40
2022/08/30 03:17:15;;;;;;;;;;;;;;;26.35;51.58;100916.72;5014030;28;629;-40
2022/08/30 03:20:01;;;;;;;;;;;;;;;26.38;51.84;100919.13;5014224;28;1244;-38
2022/08/30 03:22:46;;;;;;;;;;;;;;;26.36;52.29;100912.19;5013809;28;1104;-39
2022/08/30 03:25:32;;;;;;;;;;;;;;;26.42;52.30;100911.66;5013764;28;1331;-44
2022/08/30 03:28:18;;;;;;;;;;;;;;;26.39;52.71;100910.09;5013824;28;1965;-40
2022/08/30 03:31:04;;;;;;;;;;;;;;;26.35;52.68;100915.84;5013615;28;719;-39
2022/08/30 03:33:49;;;;;;;;;;;;;;;26.36;52.93;100915.72;5013786;28;1461;-38
2022/08/30 03:36:36;;;;;;;;;;;;;;;26.36;52.48;100906.84;5013530;28;661;-41
2022/08/30 03:39:22;;;;;;;;;;;;;;;26.34;52.58;100907.00;5013850;28;1212;-38
2022/08/30 03:42:10;;;;;;;;;;;;;;;26.34;52.63;100906.13;5013834;28;633;-38
2022/08/30 03:44:55;;;;;;;;;;;;;;;26.31;52.86;100901.91;5013676;28;1469;-39
2022/08/30 03:47:41;;;;;;;;;;;;;;;26.34;52.74;100907.00;5013537;28;1910;-40
2022/08/30 03:50:27;;;;;;;;;;;;;;;26.30;53.35;100905.56;5013837;28;1362;-44
2022/08/30 03:53:13;;;;;;;;;;;;;;;26.28;53.42;100907.53;5012584;28;1041;-44
2022/08/30 03:55:58;;;;;;;;;;;;;;;26.28;53.82;100910.19;5013878;28;626;-39
2022/08/30 03:58:44;;;;;;;;;;;;;;;26.23;54.63;100917.75;5013769;28;1222;-37
2022/08/30 04:01:29;;;;;;;;;;;;;;;26.19;55.56;100910.97;5013604;28;614;-40
2022/08/30 04:04:15;;;;;;;;;;;;;;;26.16;55.62;100913.91;5013794;28;1268;-37
2022/08/30 04:07:05;;;;;;;;;;;;;;;26.17;56.13;100912.94;5013618;28;688;-42
2022/08/30 04:09:50;;;;;;;;;;;;;;;26.17;56.57;100914.75;5013823;28;1287;-39
2022/08/30 04:12:35;;;;;;;;;;;;;;;26.15;56.36;100912.22;5012621;28;700;-39
2022/08/30 04:15:22;;;;;;;;;;;;;;;26.11;57.17;100915.25;5013407;28;1241;-40
2022/08/30 04:18:08;;;;;;;;;;;;;;;26.11;57.36;100910.78;5013472;28;1042;-40
2022/08/30 04:20:54;;;;;;;;;;;;;;;26.11;57.89;100908.09;5013335;28;826;-38
2022/08/30 04:23:40;;;;;;;;;;;;;;;26.11;58.45;100904.56;5013374;28;1209;-39
2022/08/30 04:26:25;;;;;;;;;;;;;;;26.08;58.81;100909.19;5017506;28;637;-43
2022/08/30 04:29:16;;;;;;;;;;;;;;;26.06;58.99;100899.63;5017374;28;1915;-40
2022/08/30 04:32:01;;;;;;;;;;;;;;;26.08;59.19;100903.03;5017235;28;634;-40
2022/08/30 04:34:47;;;;;;;;;;;;;;;26.05;59.78;100905.94;5017563;28;1298;-40
2022/08/30 04:37:33;;;;;;;;;;;;;;;26.08;59.72;100903.03;5017313;28;672;-40
2022/08/30 04:40:19;;;;;;;;;;;;;;;25.99;61.39;100901.13;5016805;28;1315;-41
2022/08/30 04:43:04;;;;;;;;;;;;;;;26.06;61.10;100902.28;5017083;28;908;-44
2022/08/30 04:45:51;;;;;;;;;;;;;;;26.00;61.07;100898.31;5031649;28;1253;-38
2022/08/30 04:48:36;;;;;;;;;;;;;;;25.92;59.85;100899.94;5036356;28;1906;-41
2022/08/30 04:51:22;;;;;;;;;;;;;;;25.89;60.43;100900.22;5036698;28;594;-41
2022/08/30 04:54:07;;;;;;;;;;;;;;;25.88;59.76;100899.38;5036682;28;1283;-38
2022/08/30 04:56:53;;;;;;;;;;;;;;;25.83;58.19;100895.41;5036859;28;692;-39
2022/08/30 04:59:38;;;;;;;;;;;;;;;25.84;57.67;100897.91;5036486;28;1250;-40
2022/08/30 05:02:24;;;;;;;;;;;;;;;25.89;57.22;100901.06;5036250;28;701;-42
2022/08/30 05:08:14;;;;;;;;;;;;;;;25.70;56.78;100905.41;5034322;28;1906;-42
2022/08/30 05:11:03;;;;;;;;;;;;;;;25.63;56.42;100904.19;5035415;28;652;-39
2022/08/30 05:13:49;;;;;;;;;;;;;;;25.63;55.89;100902.38;5035460;28;1217;-40
2022/08/30 05:16:34;;;;;;;;;;;;;;;25.58;55.92;100901.09;5035240;28;697;-39
2022/08/30 05:19:20;;;;;;;;;;;;;;;25.59;56.10;100913.47;5035699;28;1226;-39
2022/08/30 05:22:05;;;;;;;;;;;;;;;25.47;55.99;100916.09;5035258;28;683;-38
2022/08/30 05:24:50;;;;;;;;;;;;;;;25.60;55.78;100923.97;5035669;28;1219;-38
2022/08/30 05:27:35;;;;;;;;;;;;;;;25.48;56.23;100916.97;5035448;28;613;-38
2022/08/30 05:30:22;;;;;;;;;;;;;;;25.50;56.24;100915.88;5035137;28;1233;-39
2022/08/30 05:33:08;;;;;;;;;;;;;;;25.57;56.06;100920.72;5035071;28;1031;-38
2022/08/30 05:35:53;;;;;;;;;;;;;;;25.51;56.30;100922.06;5033982;28;727;-39
2022/08/30 05:38:39;;;;;;;;;;;;;;;25.55;56.51;100931.53;5033647;28;1566;-39
2022/08/30 05:41:26;;;;;;;;;;;;;;;25.52;56.56;100924.63;5025542;28;1498;-41
2022/08/30 05:44:11;;;;;;;;;;;;;;;25.64;56.75;100932.59;5034548;28;1210;-42
2022/08/30 05:46:56;;;;;;;;;;;;;;;25.66;56.57;100934.16;5034545;28;685;-39
2022/08/30 05:49:41;;;;;;;;;;;;;;;25.66;56.93;100931.47;5033566;28;1910;-39
2022/08/30 05:52:27;;;;;;;;;;;;;;;25.69;56.75;100941.88;5034242;28;681;-38
2022/08/30 05:55:12;;;;;;;;;;;;;;;25.70;56.85;100942.75;5034368;28;1339;-38
2022/08/30 05:57:59;;;;;;;;;;;;;;;25.78;56.82;100945.59;5034364;28;966;-38
2022/08/30 06:00:45;;;;;;;;;;;;;;;25.81;56.68;100945.34;5034300;28;1362;-38
2022/08/30 06:03:33;;;;;;;;;;;;;;;25.84;56.44;100950.47;5034386;28;1290;-41
2022/08/30 06:06:19;;;;;;;;;;;;;;;25.85;56.95;100936.13;5034346;28;609;-40
2022/08/30 06:09:05;;;;;;;;;;;;;;;25.93;56.83;100944.34;5034487;28;1977;-39
2022/08/30 06:11:51;;;;;;;;;;;;;;;25.91;57.06;100946.28;5034511;28;629;-40
2022/08/30 06:14:37;;;;;;;;;;;;;;;25.98;56.80;100945.66;5033502;28;1232;-39
2022/08/30 06:17:23;;;;;;;;;;;;;;;26.00;57.03;100948.19;5033921;28;827;-38
2022/08/30 06:20:08;;;;;;;;;;;;;;;26.06;56.84;100948.50;5034005;28;1310;-41
2022/08/30 06:22:54;;;;;;;;;;;;;;;26.11;56.62;100956.16;5034132;28;1132;-39
2022/08/30 06:25:39;;;;;;;;;;;;;;;26.18;56.83;100957.34;5034386;28;1346;-39
2022/08/30 06:28:25;;;;;;;;;;;;;;;26.24;56.44;100959.47;5033787;28;1993;-44
2022/08/30 06:31:12;;;;;;;;;;;;;;;26.26;57.01;100948.69;5033814;28;629;-40
2022/08/30 06:33:57;;;;;;;;;;;;;;;26.27;57.63;100953.88;5033785;28;1291;-40
2022/08/30 06:36:43;;;;;;;;;;;;;;;26.33;57.81;100950.69;5029653;28;949;-37
2022/08/30 06:39:28;;;;;;;;;;;;;;;26.35;58.74;100954.09;5033656;28;1303;-37
2022/08/30 06:42:13;;;;;;;;;;;;;;;26.37;58.63;100954.78;5033553;28;681;-37
2022/08/30 06:45:02;;;;;;;;;;;;;;;26.44;58.69;100961.31;5033359;28;1429;-40
2022/08/30 06:47:54;;;;;;;;;;;;;;;26.48;59.71;100969.88;5033243;28;1151;-41
2022/08/30 06:50:40;;;;;;;;;;;;;;;26.52;59.45;100955.28;5033215;28;1343;-41
2022/08/30 06:53:28;;;;;;;;;;;;;;;26.58;58.97;100965.44;5033353;28;1028;-44
2022/08/30 06:56:15;;;;;;;;;;;;;;;26.63;59.03;100963.22;5032858;28;661;-40
2022/08/30 06:59:00;;;;;;;;;;;;;;;26.68;59.22;100970.84;5031614;28;1209;-42
2022/08/30 07:01:46;;;;;;;;;;;;;;;26.66;59.95;100975.50;5030865;28;637;-40
2022/08/30 07:04:32;;;;;;;;;;;;;;;26.69;60.12;100973.38;5030735;28;1231;-40
2022/08/30 07:07:17;;;;;;;;;;;;;;;26.74;60.51;100973.84;5030547;28;661;-39
2022/08/30 07:10:06;;;;;;;;;;;;;;;26.80;60.34;100973.34;5031101;28;1906;-45
2022/08/30 07:12:51;;;;;;;;;;;;;;;26.75;60.64;100969.34;5030766;28;1036;-43
2022/08/30 07:15:39;;;;;;;;;;;;;;;26.81;60.60;100976.84;5030357;28;1280;-38
2022/08/30 07:21:31;;;;;;;;;;;;;;;26.84;60.98;100979.28;5030580;28;594;-43
2022/08/30 07:24:17;;;;;;;;;;;;;;;26.91;60.47;100969.72;5030983;28;1256;-38
2022/08/30 07:27:03;;;;;;;;;;;;;;;26.92;63.09;100982.97;5030394;28;589;-43
2022/08/30 07:29:48;;;;;;;;;;;;;;;27.01;62.91;100986.63;5030890;28;1985;-39
2022/08/30 07:32:34;;;;;;;;;;;;;;;26.95;63.28;100988.03;5031830;28;589;-40
2022/08/30 07:35:19;;;;;;;;;;;;;;;27.03;62.41;100992.69;5032131;28;1342;-42
2022/08/30 07:38:04;;;;;;;;;;;;;;;27.01;62.46;100987.50;5032042;28;1123;-40
2022/08/30 07:40:50;;;;;;;;;;;;;;;27.14;62.25;100993.47;5032457;28;1323;-40
2022/08/30 07:43:37;;;;;;;;;;;;;;;27.11;62.27;100992.88;5032467;28;1186;-40
2022/08/30 07:46:23;;;;;;;;;;;;;;;27.14;62.10;100996.13;5031616;28;1686;-41
2022/08/30 07:49:10;;;;;;;;;;;;;;;27.17;61.56;100997.69;5032261;28;1987;-37
2022/08/30 07:51:56;;;;;;;;;;;;;;;27.27;61.91;100998.53;5032372;28;677;-46
2022/08/30 07:54:41;;;;;;;;;;;;;;;27.29;61.52;100996.59;5032644;28;1236;-41
2022/08/30 07:57:30;;;;;;;;;;;;;;;27.35;61.67;101001.41;5031763;28;637;-39
2022/08/30 08:00:16;;;;;;;;;;;;;;;27.33;61.37;100998.00;5031766;28;1340;-40
2022/08/30 08:03:06;;;;;;;;;;;;;;;27.43;63.02;100996.22;5032142;28;938;-44
2022/08/30 08:05:52;;;;;;;;;;;;;;;27.51;62.40;101007.06;5031788;28;1261;-42
2022/08/30 08:08:37;;;;;;;;;;;;;;;27.54;61.82;101005.97;5032061;28;1910;-38
2022/08/30 08:11:24;;;;;;;;;;;;;;;27.46;61.50;101012.00;5032374;28;551;-43
2022/08/30 08:14:13;;;;;;;;;;;;;;;27.45;61.80;101012.97;5032137;28;1312;-39
2022/08/30 08:17:03;;;;;;;;;;;;;;;27.44;62.36;101011.31;5031068;28;626;-37
2022/08/30 08:19:49;;;;;;;;;;;;;;;27.53;62.05;101009.63;5032155;28;1357;-43
2022/08/30 08:22:34;;;;;;;;;;;;;;;27.60;62.27;101008.94;5032204;28;676;-42
2022/08/30 08:25:24;;;;;;;;;;;;;;;27.61;62.08;101001.75;5031563;28;1371;-41
2022/08/30 08:28:09;;;;;;;;;;;;;;;27.63;61.83;101000.63;5031882;28;1046;-44
2022/08/30 08:30:54;;;;;;;;;;;;;;;27.64;61.59;100996.97;5031873;28;644;-42
2022/08/30 08:33:40;;;;;;;;;;;;;;;27.66;61.55;101005.69;5029999;28;1424;-43
2022/08/30 08:36:25;;;;;;;;;;;;;;;27.71;61.39;101009.78;5030626;28;900;-38
2022/08/30 08:39:11;;;;;;;;;;;;;;;27.69;61.21;101007.28;5020046;28;1244;-44
2022/08/30 08:42:07;;;;;;;;;;;;;;;27.76;61.11;101016.41;5012372;28;673;-38
2022/08/30 08:44:55;;;;;;;;;;;;;;;27.83;61.24;101014.03;5011712;28;1288;-41
2022/08/30 08:47:56;;;;;;;;;;;;;;;27.81;61.17;101011.50;5011465;28;1051;-45
2022/08/30 08:53:33;;;;;;;;;;;;;;;27.86;61.09;101022.63;5011685;28;1910;-40
2022/08/30 08:54:01;;;;;;;;;;;;;;;27.87;61.14;101016.31;5011678;28;1269;-41
2022/08/30 08:56:48;;;;;;;;;;;;;;;27.96;61.08;101004.75;5020832;28;1194;-41
2022/08/30 08:59:33;;;;;;;;;;;;;;;28.12;60.84;101004.19;5018548;28;1355;-36
2022/08/30 09:02:19;;;;;;;;;;;;;;;28.06;60.55;101004.75;5010356;28;633;-37
2022/08/30 09:05:05;;;;;;;;;;;;;;;27.99;60.25;101003.63;5012033;28;1280;-36
2022/08/30 09:07:58;;;;;;;;;;;;;;;28.06;60.66;101016.31;5022723;28;1099;-37
2022/08/30 09:10:55;;;;;;;;;;;;;;;28.04;60.84;101015.63;5011674;28;1914;-37
2022/08/30 09:13:40;;;;;;;;;;;;;;;28.09;60.39;101009.84;5014870;28;1288;-37
2022/08/30 09:16:44;;;;;;;;;;;;;;;28.28;59.59;101012.50;5013431;28;649;-36
2022/08/30 09:19:35;;;;;;;;;;;;;;;28.29;60.02;101014.22;5014784;28;1289;-35
2022/08/30 09:22:25;;;;;;;;;;;;;;;28.21;60.51;101019.41;5015080;28;696;-36
2022/08/30 09:25:10;;;;;;;;;;;;;;;28.25;60.65;101030.69;5019241;28;1288;-36
2022/08/30 09:28:09;;;;;;;;;;;;;;;28.23;60.97;101027.31;5034999;28;1123;-36
2022/08/30 09:31:03;;;;;;;;;;;;;;;28.37;59.99;101019.69;5033980;28;1969;-41
2022/08/30 09:33:53;;;;;;;;;;;;;;;28.40;60.12;101013.19;5032773;28;1347;-43
2022/08/30 09:36:42;;;;;;;;;;;;;;;28.35;59.86;101013.63;5033308;28;949;-42
2022/08/30 09:39:33;;;;;;;;;;;;;;;28.24;60.19;101020.97;5033160;28;1310;-43
2022/08/30 09:42:22;;;;;;;;;;;;;;;28.41;59.48;101009.53;5032862;28;697;-43
2022/08/30 09:45:17;;;;;;;;;;;;;;;28.31;59.38;101003.34;5033670;28;1375;-41
2022/08/30 09:48:21;;;;;;;;;;;;;;;28.33;59.57;101002.19;5034017;28;1044;-43
2022/08/30 09:51:06;;;;;;;;;;;;;;;28.50;59.42;100996.13;5034235;28;1971;-38
2022/08/30 09:54:08;;;;;;;;;;;;;;;28.67;58.84;100992.72;5034155;28;1299;-40
2022/08/30 09:57:25;;;;;;;;;;;;;;;28.47;59.48;100990.19;5033763;28;652;-41
2022/08/30 10:00:20;;;;;;;;;;;;;;;28.73;58.28;100985.91;5033546;28;1225;-42
2022/08/30 10:03:28;;;;;;;;;;;;;;;28.49;58.87;100977.50;5034585;28;1134;-44
2022/08/30 10:06:43;;;;;;;;;;;;;;;28.36;59.20;100977.78;5033828;28;1010;-39
2022/08/30 10:09:35;;;;;;;;;;;;;;;28.64;59.05;100976.03;5032545;28;1906;-41
2022/08/30 10:12:20;;;;;;;;;;;;;;;28.51;59.62;100979.06;5033293;28;788;-37
2022/08/30 10:15:21;;;;;;;;;;;;;;;28.66;59.42;100971.44;5032047;28;1352;-37
2022/08/30 10:18:09;;;;;;;;;;;;;;;28.60;59.01;100962.09;5028202;28;1085;-38
2022/08/30 10:21:05;;;;;;;;;;;;;;;28.75;59.57;100959.81;5033414;28;708;-36
2022/08/30 10:24:01;;;;;;;;;;;;;;;29.13;57.82;100962.31;5027748;28;1301;-37
2022/08/30 10:26:57;;;;;;;;;;;;;;;29.23;58.33;100956.91;5033450;28;644;-38
2022/08/30 10:29:50;;;;;;;;;;;;;;;28.84;59.16;100958.09;5033458;28;1992;-39
2022/08/30 10:32:50;;;;;;;;;;;;;;;28.70;59.73;100946.84;5033473;28;648;-41
2022/08/30 10:35:38;;;;;;;;;;;;;;;28.78;59.64;100953.31;5032852;28;1297;-39
2022/08/30 10:38:32;;;;;;;;;;;;;;;28.78;59.32;100953.31;5033194;28;1024;-37
2022/08/30 10:41:35;;;;;;;;;;;;;;;28.82;60.00;100944.81;5028438;28;673;-39
2022/08/30 10:44:23;;;;;;;;;;;;;;;28.82;59.85;100941.31;5032602;28;1400;-40
2022/08/30 10:47:24;;;;;;;;;;;;;;;29.09;58.64;100941.31;5033247;28;723;-40
2022/08/30 10:50:09;;;;;;;;;;;;;;;29.20;58.06;100938.41;5032735;28;1906;-40
2022/08/30 10:53:02;;;;;;;;;;;;;;;29.19;58.28;100934.03;5033106;28;1095;-39
2022/08/30 10:55:50;;;;;;;;;;;;;;;29.17;58.30;100938.72;5032863;28;1340;-39
2022/08/30 10:58:37;;;;;;;;;;;;;;;29.06;59.00;100930.91;5032826;28;1323;-40
2022/08/30 11:01:29;;;;;;;;;;;;;;;29.07;60.40;100935.25;5032690;28;711;-43
2022/08/30 11:04:34;;;;;;;;;;;;;;;29.17;59.39;100926.16;5029328;28;1260;-37
2022/08/30 11:07:23;;;;;;;;;;;;;;;29.13;59.53;100926.59;5027043;28;680;-43
2022/08/30 11:10:21;;;;;;;;;;;;;;;29.08;60.43;100926.22;5032356;28;1902;-39
2022/08/30 11:13:11;;;;;;;;;;;;;;;29.02;61.02;100932.19;5032481;28;1053;-40
2022/08/30 11:15:59;;;;;;;;;;;;;;;29.10;61.64;100940.31;5032599;28;649;-44
2022/08/30 11:18:50;;;;;;;;;;;;;;;29.23;61.58;100936.31;5031978;28;1486;-47
2022/08/30 11:21:37;;;;;;;;;;;;;;;29.76;60.34;100939.00;5030116;28;1470;-46
2022/08/30 11:24:24;;;;;;;;;;;;;;;30.01;59.32;100936.56;5026873;28;1415;-47
2022/08/30 11:27:30;;;;;;;;;;;;;;;30.05;59.62;100940.63;5021961;28;1301;-39
2022/08/30 11:30:25;;;;;;;;;;;;;;;30.11;59.65;100932.81;5021189;28;1894;-38
2022/08/30 11:33:11;;;;;;;;;;;;;;;30.10;59.76;100941.00;5026922;28;1056;-41
2022/08/30 11:35:58;;;;;;;;;;;;;;;30.09;59.70;100933.97;5028596;28;1110;-38
2022/08/30 11:38:43;;;;;;;;;;;;;;;30.06;59.80;100943.19;5030291;28;1332;-38
2022/08/30 11:41:30;;;;;;;;;;;;;;;29.90;59.85;100934.97;5022831;28;1154;-38
2022/08/30 11:44:21;;;;;;;;;;;;;;;29.87;60.65;100929.06;5025553;28;1304;-41
2022/08/30 11:47:25;;;;;;;;;;;;;;;29.94;60.05;100935.53;5023395;28;859;-38
2022/08/30 11:50:17;;;;;;;;;;;;;;;29.91;59.84;100938.50;5031200;28;2013;-38
2022/08/30 11:53:03;;;;;;;;;;;;;;;29.86;60.24;100928.22;5030807;28;1042;-40
2022/08/30 11:55:52;;;;;;;;;;;;;;;29.89;60.10;100924.38;5010103;28;1297;-37
2022/08/30 11:58:53;;;;;;;;;;;;;;;30.02;59.67;100922.16;5031051;28;1277;-41
2022/08/30 12:01:39;;;;;;;;;;;;;;;29.93;59.63;100921.25;5019289;28;881;-38
2022/08/30 12:04:41;;;;;;;;;;;;;;;29.95;59.74;100915.69;5031345;28;1261;-43
2022/08/30 12:07:45;;;;;;;;;;;;;;;29.93;59.86;100925.75;5029009;28;865;-44
2022/08/30 12:10:40;;;;;;;;;;;;;;;30.02;60.24;100923.00;5022027;28;1922;-41
2022/08/30 12:13:38;;;;;;;;;;;;;;;30.05;60.32;100913.78;5028099;28;1180;-39
2022/08/30 12:16:33;;;;;;;;;;;;;;;30.01;60.25;100920.44;5021016;28;889;-41
2022/08/30 12:19:20;;;;;;;;;;;;;;;29.96;60.26;100912.03;5031082;28;1366;-41
2022/08/30 12:22:06;;;;;;;;;;;;;;;29.94;60.46;100908.66;5029095;28;944;-40
2022/08/30 12:24:52;;;;;;;;;;;;;;;30.04;60.15;100906.69;5031433;28;1280;-42
2022/08/30 12:27:37;;;;;;;;;;;;;;;30.10;59.67;100908.75;5030249;28;1158;-43
2022/08/30 12:30:26;;;;;;;;;;;;;;;29.97;60.37;100908.34;5030130;28;1989;-38
2022/08/30 12:33:22;;;;;;;;;;;;;;;29.87;60.87;100902.22;5029728;28;974;-39
2022/08/30 12:36:30;;;;;;;;;;;;;;;30.04;60.34;100904.03;5023931;28;984;-41
2022/08/30 12:39:17;;;;;;;;;;;;;;;29.91;60.73;100895.56;5024596;28;1340;-39
2022/08/30 12:42:10;;;;;;;;;;;;;;;30.11;60.12;100900.56;5020792;28;908;-45
2022/08/30 12:45:05;;;;;;;;;;;;;;;29.90;60.87;100899.22;5030630;28;1623;-38
2022/08/30 12:47:59;;;;;;;;;;;;;;;30.10;60.46;100892.66;5031171;28;1128;-40
2022/08/30 12:50:52;;;;;;;;;;;;;;;30.09;60.38;100890.97;5027486;28;1906;-42
2022/08/30 12:53:41;;;;;;;;;;;;;;;29.90;61.37;100883.13;5033959;28;1355;-45
2022/08/30 12:56:43;;;;;;;;;;;;;;;30.12;60.26;100880.78;5030032;28;885;-40
2022/08/30 12:59:40;;;;;;;;;;;;;;;30.12;60.61;100875.41;5034150;28;1276;-41
2022/08/30 13:02:40;;;;;;;;;;;;;;;30.23;60.12;100879.66;5030521;28;921;-42
2022/08/30 13:05:42;;;;;;;;;;;;;;;30.20;60.69;100874.59;5031939;28;1395;-42
2022/08/30 13:08:37;;;;;;;;;;;;;;;29.99;61.46;100866.06;5032630;28;1304;-43
2022/08/30 13:11:24;;;;;;;;;;;;;;;30.10;61.42;100871.16;5026942;28;1961;-41
2022/08/30 13:14:32;;;;;;;;;;;;;;;30.07;61.24;100872.31;5034045;28;1355;-41
2022/08/30 13:17:18;;;;;;;;;;;;;;;30.09;60.93;100875.72;5029901;28;1008;-40
2022/08/30 13:20:25;;;;;;;;;;;;;;;30.07;61.08;100866.09;5034605;28;1260;-45
2022/08/30 13:23:10;;;;;;;;;;;;;;;30.09;61.37;100858.75;5033994;28;1044;-41
2022/08/30 13:25:55;;;;;;;;;;;;;;;30.05;61.33;100860.06;5033343;28;920;-44
2022/08/30 13:28:42;;;;;;;;;;;;;;;30.11;60.86;100846.84;5033820;28;1350;-41
2022/08/30 13:31:35;;;;;;;;;;;;;;;30.16;61.48;100851.72;5026675;28;1997;-39
2022/08/30 13:34:23;;;;;;;;;;;;;;;30.27;60.80;100841.56;5033721;28;1391;-41
2022/08/30 13:37:13;;;;;;;;;;;;;;;30.24;61.19;100851.78;5027392;28;1083;-39
2022/08/30 13:40:20;;;;;;;;;;;;;;;30.19;61.46;100843.34;5027969;28;1292;-39
2022/08/30 13:43:05;;;;;;;;;;;;;;;30.08;61.40;100838.25;5031213;28;1131;-38
2022/08/30 13:45:50;;;;;;;;;;;;;;;30.28;60.77;100828.94;5027926;28;1221;-43
2022/08/30 13:48:36;;;;;;;;;;;;;;;30.06;61.48;100833.06;5032965;28;1335;-39
2022/08/30 13:51:21;;;;;;;;;;;;;;;30.05;60.86;100833.19;5029110;28;1894;-42
2022/08/30 13:54:09;;;;;;;;;;;;;;;30.06;61.60;100826.84;5026212;28;1391;-39
2022/08/30 13:56:54;;;;;;;;;;;;;;;30.17;60.37;100807.75;5026011;28;873;-42
2022/08/30 13:59:40;;;;;;;;;;;;;;;30.10;60.28;100812.91;5031285;28;1261;-40
2022/08/30 14:02:34;;;;;;;;;;;;;;;29.86;61.05;100801.16;5029828;28;1031;-38
2022/08/30 14:05:31;;;;;;;;;;;;;;;29.98;60.89;100802.59;5030719;28;1221;-40
2022/08/30 14:08:37;;;;;;;;;;;;;;;30.07;60.41;100809.69;5031797;28;1351;-38
2022/08/30 14:11:35;;;;;;;;;;;;;;;30.12;59.96;100793.97;5027274;28;1999;-46
2022/08/30 14:14:20;;;;;;;;;;;;;;;30.14;59.95;100791.94;5032657;28;1284;-42
2022/08/30 14:17:29;;;;;;;;;;;;;;;30.06;60.74;100779.34;5031810;28;1027;-39
2022/08/30 14:20:14;;;;;;;;;;;;;;;30.29;60.12;100769.69;5032714;28;1281;-39
2022/08/30 14:23:02;;;;;;;;;;;;;;;30.50;59.43;100766.59;5028687;28;1056;-39
2022/08/30 14:25:54;;;;;;;;;;;;;;;30.40;59.47;100770.44;5026730;28;854;-40
2022/08/30 14:28:40;;;;;;;;;;;;;;;30.64;59.06;100760.59;5027847;28;1343;-41
2022/08/30 14:31:28;;;;;;;;;;;;;;;30.59;59.48;100765.63;5031830;28;1906;-42
2022/08/30 14:34:16;;;;;;;;;;;;;;;30.55;59.41;100753.50;5024254;28;1264;-42
2022/08/30 14:37:05;;;;;;;;;;;;;;;30.66;59.23;100749.69;5027301;28;920;-42
2022/08/30 14:39:53;;;;;;;;;;;;;;;30.70;58.73;100751.03;5029799;28;1498;-43
2022/08/30 14:42:38;;;;;;;;;;;;;;;30.70;58.54;100749.16;5023851;28;1218;-42
2022/08/30 14:45:24;;;;;;;;;;;;;;;30.76;58.17;100740.44;5029540;28;1362;-45
2022/08/30 14:48:10;;;;;;;;;;;;;;;30.86;58.25;100734.91;5031460;28;1023;-46
2022/08/30 14:50:59;;;;;;;;;;;;;;;30.85;57.98;100728.69;5027753;28;1906;-42